Etusivu
METAR-TAF:

METAR-TAF

Lentoasemat :

Matagami, Quebec, Kanada

Leveyspiiri: 49-46N, Pituuspiiri: 077-49W, korkeus merenpinnasta: 281 m

Tämänhetkinen sää

Tämä raportti tehtiin 26 minuuttia sitten, kello 05.00 UTC
tyyntä
Lämpötila 2°C
Kosteus 93%
Ilmanpaine 1019 hPa
Näkyvyys: 14.5 km
Hajonneita pilviä 20000 ft:n korkeudessa
Pilvistä 22000 ft:n korkeudessa

METAR: CYNM 250500Z AUTO 00000KT 9SM BKN200 OVC220 02/01 A3008 RMK SLP198

Aika: 01:26 (05:26 UTC)


TAF: puuttuu

Säähavainnot ja -ennusteet yli 4000 lentoasemalta (METAR- ja TAF-raportit).

Käytössä olevat sääasemat on merkitty karttaan keltaisilla ja punaisilla pisteillä.

Aseta hiiri pisteen päälle nähdäksesi sääaseman nimen.

Klikkaa sitten nähdäksesi säähavainnot ja -ennusteet.

Kartan vaihtaminen: klikkaa mustalla rastilla varustettuja vihreitä pisteitä, niin voit zoomata sisään; viivalla varustettua vihreää pistettä, niin voit zoomata ulos tai vihreitä nuolia, niin pääset viereisille kartoille.


METAR-TAF: